createdAt,value
2017-12-14T00:01:56.316Z,4.30
2017-12-14T00:04:22.758Z,4.30
2017-12-14T00:06:49.355Z,4.20
2017-12-14T00:09:15.802Z,4.30
2017-12-14T00:11:42.235Z,4.20
2017-12-14T00:14:08.767Z,4.20
2017-12-14T00:16:35.295Z,4.30
2017-12-14T00:19:02.475Z,4.40
2017-12-14T00:21:28.873Z,4.30
2017-12-14T00:23:56.381Z,4.40
2017-12-14T00:26:22.808Z,4.30
2017-12-14T00:28:49.268Z,4.50
2017-12-14T00:31:15.725Z,4.50
2017-12-14T00:33:42.134Z,4.40
2017-12-14T00:36:08.771Z,4.50
2017-12-14T00:38:35.174Z,4.50
2017-12-14T00:41:01.754Z,4.50
2017-12-14T00:43:28.182Z,4.50
2017-12-14T00:45:54.642Z,4.50
2017-12-14T00:48:21.113Z,4.50
2017-12-14T00:50:47.568Z,4.50
2017-12-14T00:53:14.137Z,4.60
2017-12-14T00:55:40.582Z,4.70
2017-12-14T00:58:07.043Z,4.80
2017-12-14T01:00:33.490Z,4.80
2017-12-14T01:02:59.895Z,4.70
2017-12-14T01:05:26.362Z,4.90
2017-12-14T01:07:52.784Z,4.90
2017-12-14T01:10:19.185Z,5.00
2017-12-14T01:12:45.929Z,5.10
2017-12-14T01:15:13.178Z,5.10
2017-12-14T01:17:39.655Z,5.10
2017-12-14T01:20:06.105Z,5.10
2017-12-14T01:22:32.576Z,5.10
2017-12-14T01:25:06.100Z,5.10
2017-12-14T01:27:33.309Z,5.10
2017-12-14T01:29:59.749Z,5.10
2017-12-14T01:32:26.184Z,5.10
2017-12-14T01:34:52.630Z,5.20
2017-12-14T01:37:19.052Z,5.20
2017-12-14T01:39:45.758Z,5.20
2017-12-14T01:42:12.963Z,5.30
2017-12-14T01:44:39.950Z,5.20
2017-12-14T01:47:07.971Z,5.10
2017-12-14T01:49:34.498Z,5.10
2017-12-14T01:52:01.691Z,5.10
2017-12-14T01:54:28.310Z,5.10
2017-12-14T01:56:54.767Z,5.10
2017-12-14T01:59:21.287Z,5.10
2017-12-14T02:01:47.698Z,5.10
2017-12-14T02:04:15.100Z,5.30
2017-12-14T02:06:41.711Z,5.30
2017-12-14T02:09:08.907Z,5.80
2017-12-14T02:11:35.627Z,5.70
2017-12-14T02:14:02.023Z,5.80
2017-12-14T02:16:28.554Z,5.80
2017-12-14T02:18:55.004Z,5.80
2017-12-14T02:21:21.415Z,5.80
2017-12-14T02:23:47.883Z,5.80
2017-12-14T02:26:14.359Z,5.90
2017-12-14T02:28:40.842Z,6.00
2017-12-14T02:31:07.257Z,6.00
2017-12-14T02:33:33.886Z,5.90
2017-12-14T02:36:00.349Z,5.90
2017-12-14T02:38:26.814Z,5.80
2017-12-14T02:40:53.244Z,5.80
2017-12-14T02:43:19.698Z,5.80
2017-12-14T02:45:46.126Z,5.80
2017-12-14T02:48:12.583Z,5.70
2017-12-14T02:50:38.994Z,5.70
2017-12-14T02:53:05.450Z,5.60
2017-12-14T02:55:31.851Z,5.50
2017-12-14T02:57:58.282Z,5.40
2017-12-14T03:00:24.826Z,5.30
2017-12-14T03:49:01.002Z,5.10
2017-12-14T03:51:27.401Z,4.70
2017-12-14T03:53:53.959Z,4.70
2017-12-14T03:56:21.152Z,4.80
2017-12-14T03:58:47.566Z,4.70
2017-12-14T04:01:14.194Z,4.80
2017-12-14T04:03:41.351Z,4.80
2017-12-14T04:06:08.623Z,4.80
2017-12-14T04:08:35.003Z,4.80
2017-12-14T04:11:01.565Z,5.00
2017-12-14T04:13:27.972Z,5.10
2017-12-14T04:15:54.439Z,5.20
2017-12-14T04:18:20.923Z,5.30
2017-12-14T04:20:47.293Z,5.30
2017-12-14T04:23:13.741Z,5.40
2017-12-14T04:25:40.195Z,5.40
2017-12-14T04:28:07.330Z,5.40
2017-12-14T04:30:33.753Z,5.30
2017-12-14T04:33:00.174Z,5.40
2017-12-14T04:35:26.702Z,5.40
2017-12-14T04:37:53.100Z,5.60
2017-12-14T04:40:19.690Z,5.70
2017-12-14T04:42:46.127Z,5.70
2017-12-14T04:45:12.534Z,5.80
2017-12-14T04:47:39.980Z,5.70
2017-12-14T04:50:06.391Z,5.70
2017-12-14T04:52:32.838Z,5.60
2017-12-14T04:54:59.233Z,5.50
2017-12-14T04:57:25.611Z,5.30
2017-12-14T04:59:52.047Z,5.20
2017-12-14T05:02:18.457Z,5.20
2017-12-14T05:04:44.905Z,5.00
2017-12-14T05:07:11.375Z,4.90
2017-12-14T05:09:37.827Z,4.60
2017-12-14T05:12:04.438Z,4.50
2017-12-14T05:14:31.095Z,4.40
2017-12-14T05:16:57.545Z,4.30
2017-12-14T05:19:23.980Z,4.10
2017-12-14T05:21:50.656Z,4.10
2017-12-14T05:24:17.843Z,4.10
2017-12-14T05:26:44.274Z,4.00
2017-12-14T05:29:10.718Z,4.00
2017-12-14T05:31:37.183Z,4.00
2017-12-14T05:34:03.750Z,4.10
2017-12-14T05:36:30.342Z,4.00
2017-12-14T05:38:56.819Z,4.00
2017-12-14T05:41:23.457Z,4.00
2017-12-14T05:43:50.780Z,3.90
2017-12-14T05:46:17.191Z,3.90
2017-12-14T05:48:44.371Z,3.90
2017-12-14T05:51:11.010Z,3.70
2017-12-14T05:53:37.435Z,3.90
2017-12-14T05:56:04.629Z,3.90
2017-12-14T05:58:31.086Z,3.80
2017-12-14T06:00:57.498Z,3.80
2017-12-14T06:03:23.900Z,3.80
2017-12-14T06:05:51.058Z,3.80
2017-12-14T06:08:18.240Z,3.80
2017-12-14T06:10:44.689Z,3.70
2017-12-14T06:13:11.128Z,3.80
2017-12-14T06:15:37.550Z,3.70
2017-12-14T06:18:04.817Z,3.70
2017-12-14T06:20:31.309Z,3.70
2017-12-14T06:22:57.722Z,3.60
2017-12-14T06:25:24.139Z,3.60
2017-12-14T06:27:50.590Z,3.70
2017-12-14T06:30:17.094Z,3.70
2017-12-14T06:32:43.496Z,3.70
2017-12-14T06:35:09.921Z,3.60
2017-12-14T06:37:36.345Z,3.70
2017-12-14T06:40:02.814Z,3.70
2017-12-14T06:42:29.317Z,3.60
2017-12-14T06:44:55.730Z,3.60
2017-12-14T06:47:22.204Z,3.50
2017-12-14T06:49:48.638Z,3.60
2017-12-14T06:52:15.027Z,3.50
2017-12-14T06:54:42.216Z,3.40
2017-12-14T06:57:08.741Z,3.20
2017-12-14T06:59:35.240Z,3.40
2017-12-14T07:02:01.749Z,3.30
2017-12-14T07:04:28.156Z,3.20
2017-12-14T07:09:47.893Z,3.10
2017-12-14T07:12:14.337Z,3.00
2017-12-14T07:14:40.832Z,3.00
2017-12-14T07:17:07.262Z,3.00
2017-12-14T07:19:33.711Z,2.90
2017-12-14T07:22:00.147Z,2.90
2017-12-14T07:24:26.640Z,2.90
2017-12-14T07:26:53.055Z,2.80
2017-12-14T07:29:19.534Z,2.70
2017-12-14T07:31:46.729Z,2.70
2017-12-14T07:34:13.213Z,2.70
2017-12-14T07:36:40.592Z,2.60
2017-12-14T07:39:07.790Z,2.60
2017-12-14T07:41:34.227Z,2.60
2017-12-14T07:44:12.767Z,2.60
2017-12-14T07:46:51.693Z,2.50
2017-12-14T07:49:21.011Z,2.50
2017-12-14T07:51:47.590Z,2.50
2017-12-14T07:54:14.018Z,2.40
2017-12-14T07:56:40.413Z,2.40
2017-12-14T07:59:06.981Z,2.40
2017-12-14T08:01:34.219Z,2.50
2017-12-14T08:04:00.662Z,2.50
2017-12-14T08:06:27.094Z,2.50
2017-12-14T08:08:53.589Z,2.50
2017-12-14T08:11:20.027Z,2.60
2017-12-14T08:13:46.431Z,2.60
2017-12-14T08:16:13.610Z,2.90
2017-12-14T08:18:40.052Z,2.90
2017-12-14T08:21:06.590Z,3.10
2017-12-14T08:23:33.040Z,3.20
2017-12-14T08:25:59.650Z,3.40
2017-12-14T08:28:26.872Z,3.90
2017-12-14T08:30:53.294Z,3.80
2017-12-14T08:33:19.958Z,4.00
2017-12-14T08:35:46.358Z,4.10
2017-12-14T08:38:12.859Z,4.10
2017-12-14T08:40:40.180Z,4.20
2017-12-14T08:43:06.694Z,4.20
2017-12-14T08:45:33.146Z,4.30
2017-12-14T08:47:59.562Z,4.40
2017-12-14T08:50:26.106Z,4.40
2017-12-14T08:52:52.550Z,4.50
2017-12-14T08:55:19.070Z,4.70
2017-12-14T08:57:46.234Z,5.10
2017-12-14T09:00:12.646Z,5.10
2017-12-14T09:02:39.872Z,5.60
2017-12-14T09:05:06.317Z,5.50
2017-12-14T09:07:32.770Z,5.80
2017-12-14T09:09:59.938Z,6.10
2017-12-14T09:12:27.093Z,6.30
2017-12-14T09:14:54.271Z,6.20
2017-12-14T09:17:20.699Z,6.20
2017-12-14T09:19:47.885Z,6.40
2017-12-14T09:22:14.547Z,6.40
2017-12-14T09:24:41.016Z,6.50
2017-12-14T09:27:07.426Z,6.50
2017-12-14T09:29:34.041Z,6.50
2017-12-14T09:32:00.449Z,6.90
2017-12-14T09:34:27.623Z,6.70
2017-12-14T09:36:54.068Z,6.70
2017-12-14T09:39:20.523Z,6.70
2017-12-14T09:41:46.955Z,6.60
2017-12-14T09:44:13.482Z,6.60
2017-12-14T09:46:39.980Z,6.80
2017-12-14T09:49:06.406Z,6.90
2017-12-14T09:51:32.895Z,6.80
2017-12-14T09:53:59.417Z,6.50
2017-12-14T09:56:26.608Z,7.00
2017-12-14T09:58:53.056Z,6.80
2017-12-14T10:01:19.535Z,6.80
2017-12-14T10:03:46.027Z,6.60
2017-12-14T10:06:12.582Z,6.60
2017-12-14T10:08:39.118Z,6.90
2017-12-14T10:11:05.578Z,6.90
2017-12-14T10:13:32.094Z,7.00
2017-12-14T10:15:58.618Z,6.80
2017-12-14T10:18:25.053Z,6.70
2017-12-14T10:20:51.532Z,6.90
2017-12-14T10:23:18.030Z,7.10
2017-12-14T10:25:44.598Z,6.90
2017-12-14T10:28:11.060Z,7.10
2017-12-14T10:30:37.521Z,7.10
2017-12-14T10:33:04.691Z,7.50
2017-12-14T10:35:32.117Z,7.60
2017-12-14T10:37:59.357Z,7.60
2017-12-14T10:40:25.878Z,7.60
2017-12-14T10:42:52.405Z,7.30
2017-12-14T10:45:18.936Z,7.40
2017-12-14T10:47:45.646Z,7.90
2017-12-14T10:50:12.130Z,7.80
2017-12-14T10:52:38.882Z,8.00
2017-12-14T10:55:05.414Z,8.00
2017-12-14T10:57:31.914Z,8.10
2017-12-14T10:59:58.398Z,8.20
2017-12-14T11:02:24.944Z,8.30
2017-12-14T11:04:51.528Z,8.20
2017-12-14T11:07:17.957Z,8.20
2017-12-14T11:09:44.557Z,8.00
2017-12-14T11:12:13.010Z,8.10
2017-12-14T11:14:40.436Z,8.00
2017-12-14T11:17:07.001Z,8.00
2017-12-14T11:19:36.946Z,8.20
2017-12-14T11:22:04.167Z,8.60
2017-12-14T11:24:30.743Z,8.60
2017-12-14T11:26:57.981Z,9.10
2017-12-14T11:29:24.621Z,9.00
2017-12-14T11:31:51.124Z,8.90
2017-12-14T11:34:17.570Z,8.50
2017-12-14T11:36:44.262Z,8.90
2017-12-14T11:39:11.571Z,8.50
2017-12-14T11:41:38.058Z,8.40
2017-12-14T11:44:05.432Z,8.70
2017-12-14T11:46:31.862Z,8.60
2017-12-14T11:48:59.045Z,8.80
2017-12-14T11:51:25.550Z,8.80
2017-12-14T11:53:52.709Z,8.70
2017-12-14T11:56:19.927Z,9.00
2017-12-14T11:58:46.401Z,9.00
2017-12-14T12:01:13.599Z,8.40
2017-12-14T12:03:40.110Z,8.30
2017-12-14T12:06:06.565Z,8.30
2017-12-14T12:08:33.013Z,8.40
2017-12-14T12:10:59.602Z,8.30
2017-12-14T12:16:23.315Z,8.70
2017-12-14T12:18:49.781Z,8.90
2017-12-14T12:21:16.256Z,9.00
2017-12-14T12:23:42.742Z,8.90
2017-12-14T12:26:09.158Z,8.90
2017-12-14T12:28:36.337Z,9.00
2017-12-14T12:31:02.881Z,9.00
2017-12-14T12:33:29.313Z,9.40
2017-12-14T12:35:55.925Z,9.30
2017-12-14T12:38:23.133Z,8.70
2017-12-14T12:40:49.584Z,8.70
2017-12-14T12:43:16.182Z,9.00
2017-12-14T12:45:42.681Z,9.20
2017-12-14T12:48:09.124Z,9.10
2017-12-14T12:53:30.974Z,8.60
2017-12-14T12:55:57.417Z,8.60
2017-12-14T12:58:25.943Z,8.60
2017-12-14T13:00:52.411Z,8.60
2017-12-14T13:03:18.947Z,8.30
2017-12-14T13:05:45.457Z,7.90
2017-12-14T13:08:12.095Z,7.40
2017-12-14T13:10:39.340Z,7.50
2017-12-14T13:13:07.173Z,8.30
2017-12-14T13:15:35.169Z,8.30
2017-12-14T13:18:02.622Z,8.00
2017-12-14T13:20:29.675Z,8.00
2017-12-14T13:22:57.866Z,7.80
2017-12-14T13:25:25.144Z,7.50
2017-12-14T13:27:51.579Z,7.50
2017-12-14T13:30:18.245Z,7.10
2017-12-14T13:32:44.677Z,7.00
2017-12-14T13:35:13.210Z,6.60
2017-12-14T13:37:39.710Z,6.60
2017-12-14T13:40:06.172Z,6.50
2017-12-14T13:42:32.935Z,6.40
2017-12-14T13:44:59.406Z,6.50
2017-12-14T13:47:26.700Z,6.40
2017-12-14T13:49:53.198Z,6.40
2017-12-14T13:52:19.756Z,6.50
2017-12-14T13:54:46.435Z,6.50
2017-12-14T13:57:12.860Z,6.40
2017-12-14T13:59:41.321Z,6.30
2017-12-14T14:02:08.541Z,6.10
2017-12-14T14:04:35.234Z,6.10
2017-12-14T14:07:01.829Z,6.10
2017-12-14T14:09:29.767Z,6.10
2017-12-14T14:11:56.415Z,6.20
2017-12-14T14:14:23.036Z,6.30
2017-12-14T14:16:49.457Z,6.20
2017-12-14T14:19:17.534Z,6.10
2017-12-14T14:21:43.966Z,6.10
2017-12-14T14:24:11.222Z,6.00
2017-12-14T14:26:38.498Z,6.10
2017-12-14T14:29:05.088Z,6.10
2017-12-14T14:31:31.558Z,6.20
2017-12-14T14:33:58.731Z,6.20
2017-12-14T14:36:25.203Z,6.20
2017-12-14T14:38:51.673Z,6.30
2017-12-14T14:41:18.128Z,6.20
2017-12-14T14:43:45.321Z,6.10
2017-12-14T14:46:14.954Z,6.10
2017-12-14T14:48:41.377Z,6.00
2017-12-14T14:51:07.896Z,6.00
2017-12-14T14:53:34.353Z,5.90
2017-12-14T14:56:01.479Z,5.80
2017-12-14T14:58:27.918Z,5.70
2017-12-14T15:00:54.440Z,5.60
2017-12-14T15:03:21.623Z,5.50
2017-12-14T15:05:48.280Z,5.50
2017-12-14T15:08:14.738Z,5.40
2017-12-14T15:10:41.271Z,5.40
2017-12-14T15:13:07.887Z,5.40
2017-12-14T15:15:34.473Z,5.30
2017-12-14T15:18:00.964Z,5.30
2017-12-14T15:20:27.420Z,5.30
2017-12-14T15:22:53.979Z,5.30
2017-12-14T15:25:20.636Z,5.20
2017-12-14T15:27:47.172Z,5.20
2017-12-14T15:30:20.950Z,5.20
2017-12-14T15:32:47.478Z,5.20
2017-12-14T15:35:13.968Z,5.20
2017-12-14T15:37:40.470Z,5.10
2017-12-14T15:40:06.976Z,5.10
2017-12-14T15:42:34.390Z,5.10
2017-12-14T15:45:00.871Z,5.10
2017-12-14T15:47:27.323Z,5.00
2017-12-14T15:49:54.660Z,5.00
2017-12-14T15:52:21.350Z,5.00
2017-12-14T15:54:47.845Z,4.90
2017-12-14T15:57:14.359Z,4.80
2017-12-14T15:59:40.859Z,4.70
2017-12-14T16:02:07.301Z,4.90
2017-12-14T16:04:33.752Z,4.90
2017-12-14T16:07:00.216Z,5.00
2017-12-14T16:09:26.737Z,5.00
2017-12-14T16:11:53.264Z,5.10
2017-12-14T16:14:20.435Z,5.10
2017-12-14T16:16:47.136Z,5.10
2017-12-14T16:19:14.361Z,5.10
2017-12-14T16:21:40.801Z,5.10
2017-12-14T16:24:07.311Z,5.00
2017-12-14T16:26:33.810Z,5.10
2017-12-14T16:29:01.092Z,5.00
2017-12-14T16:31:27.801Z,5.00
2017-12-14T16:33:55.142Z,4.80
2017-12-14T16:36:21.668Z,4.80
2017-12-14T16:38:48.239Z,4.60
2017-12-14T16:41:14.831Z,4.50
2017-12-14T16:43:41.369Z,4.40
2017-12-14T16:46:07.856Z,4.40
2017-12-14T16:48:34.304Z,4.30
2017-12-14T16:51:00.787Z,4.30
2017-12-14T16:53:27.252Z,4.30
2017-12-14T16:55:53.697Z,4.30
2017-12-14T16:58:20.176Z,4.30
2017-12-14T17:00:47.349Z,4.30
2017-12-14T17:03:13.812Z,4.30
2017-12-14T17:05:40.312Z,4.20
2017-12-14T17:08:07.563Z,4.20
2017-12-14T17:10:34.006Z,4.20
2017-12-14T17:13:01.219Z,4.20
2017-12-14T17:15:27.862Z,4.20
2017-12-14T17:17:54.329Z,4.30
2017-12-14T17:20:21.590Z,4.30
2017-12-14T17:22:48.796Z,4.30
2017-12-14T17:25:15.342Z,4.30
2017-12-14T17:27:41.787Z,4.30
2017-12-14T17:30:08.338Z,4.40
2017-12-14T17:32:34.866Z,4.40
2017-12-14T17:35:01.760Z,4.40
2017-12-14T17:37:28.227Z,4.40
2017-12-14T17:39:54.716Z,4.40
2017-12-14T17:42:21.256Z,4.40
2017-12-14T17:44:47.702Z,4.50
2017-12-14T17:47:14.289Z,4.50
2017-12-14T17:49:40.892Z,4.50
2017-12-14T17:52:07.543Z,4.50
2017-12-14T17:54:34.841Z,4.60
2017-12-14T17:57:01.800Z,4.50
2017-12-14T17:59:28.293Z,4.50
2017-12-14T18:01:55.492Z,4.50
2017-12-14T18:04:21.970Z,4.60
2017-12-14T18:06:48.490Z,4.50
2017-12-14T18:09:14.960Z,4.50
2017-12-14T18:11:42.904Z,4.40
2017-12-14T18:14:09.384Z,4.40
2017-12-14T18:16:36.729Z,4.40
2017-12-14T18:19:03.231Z,4.40
2017-12-14T18:21:29.681Z,4.40
2017-12-14T18:23:56.397Z,4.50
2017-12-14T18:26:26.444Z,4.50
2017-12-14T18:28:54.861Z,4.40
2017-12-14T18:31:22.161Z,4.40
2017-12-14T18:33:48.844Z,4.40
2017-12-14T18:36:22.430Z,4.30
2017-12-14T18:38:48.898Z,4.30
2017-12-14T18:41:17.061Z,4.20
2017-12-14T18:43:43.595Z,4.30
2017-12-14T18:46:10.068Z,4.30
2017-12-14T18:48:36.533Z,4.30
2017-12-14T18:51:02.996Z,4.30
2017-12-14T18:53:29.515Z,4.30
2017-12-14T18:55:56.165Z,4.30
2017-12-14T18:58:22.621Z,4.30
2017-12-14T19:00:49.110Z,4.40
2017-12-14T19:03:16.372Z,4.40
2017-12-14T19:05:43.625Z,4.40
2017-12-14T19:08:10.108Z,4.50
2017-12-14T19:10:36.732Z,4.50
2017-12-14T19:13:03.383Z,4.50
2017-12-14T19:15:29.843Z,4.50
2017-12-14T19:17:56.372Z,4.50
2017-12-14T19:20:22.887Z,4.60
2017-12-14T19:22:50.249Z,4.50
2017-12-14T19:25:17.560Z,4.50
2017-12-14T19:27:44.129Z,4.50
2017-12-14T19:30:11.519Z,4.40
2017-12-14T19:32:38.061Z,4.40
2017-12-14T19:35:04.554Z,4.40
2017-12-14T19:37:32.559Z,4.20
2017-12-14T19:39:59.765Z,4.20
2017-12-14T19:42:26.387Z,4.20
2017-12-14T19:44:52.890Z,4.20
2017-12-14T19:47:20.088Z,4.10
2017-12-14T19:49:46.650Z,4.10
2017-12-14T19:52:13.266Z,4.00
2017-12-14T19:54:39.758Z,4.00
2017-12-14T19:57:07.082Z,3.90
2017-12-14T19:59:33.518Z,3.90
2017-12-14T20:02:00.086Z,3.90
2017-12-14T20:04:26.690Z,3.80
2017-12-14T20:06:53.269Z,3.90
2017-12-14T20:09:21.353Z,3.80
2017-12-14T20:11:47.819Z,3.70
2017-12-14T20:14:15.085Z,3.50
2017-12-14T20:16:41.621Z,3.60
2017-12-14T20:19:08.992Z,3.50
2017-12-14T20:21:35.470Z,3.50
2017-12-14T20:24:02.031Z,3.50
2017-12-14T20:26:28.530Z,3.60
2017-12-14T20:28:55.002Z,3.50
2017-12-14T20:31:21.785Z,3.60
2017-12-14T20:33:48.297Z,3.60
2017-12-14T20:36:14.753Z,3.60
2017-12-14T20:38:42.075Z,3.60
2017-12-14T20:41:08.507Z,3.60
2017-12-14T20:43:35.006Z,3.60
2017-12-14T20:46:01.551Z,3.60
2017-12-14T20:48:28.027Z,3.60
2017-12-14T20:50:54.475Z,3.60
2017-12-14T20:53:21.002Z,3.60
2017-12-14T20:55:47.475Z,3.70
2017-12-14T20:58:13.995Z,3.70
2017-12-14T21:00:40.508Z,3.70
2017-12-14T21:03:07.064Z,3.70
2017-12-14T21:05:33.517Z,3.70
2017-12-14T21:08:00.249Z,3.70
2017-12-14T21:10:26.795Z,3.70
2017-12-14T21:12:53.501Z,3.70
2017-12-14T21:15:20.055Z,3.70
2017-12-14T21:17:46.543Z,3.70
2017-12-14T21:20:13.232Z,3.70
2017-12-14T21:22:39.756Z,3.70
2017-12-14T21:25:07.029Z,3.80
2017-12-14T21:27:33.611Z,3.80
2017-12-14T21:30:00.096Z,3.80
2017-12-14T21:32:27.402Z,3.80
2017-12-14T21:34:53.892Z,3.80
2017-12-14T21:37:21.233Z,3.70
2017-12-14T21:39:48.607Z,3.80
2017-12-14T21:42:22.945Z,3.80
2017-12-14T21:44:49.497Z,3.80
2017-12-14T21:47:15.955Z,3.80
2017-12-14T21:49:42.771Z,3.80
2017-12-14T21:52:09.218Z,3.90
2017-12-14T21:54:35.776Z,3.90
2017-12-14T21:57:02.291Z,3.90
2017-12-14T21:59:28.946Z,3.80
2017-12-14T22:02:00.120Z,3.80
2017-12-14T22:04:26.697Z,3.70
2017-12-14T22:06:53.974Z,3.50
2017-12-14T22:09:20.639Z,3.50
2017-12-14T22:11:47.248Z,3.50
2017-12-14T22:14:14.476Z,3.50
2017-12-14T22:16:41.131Z,3.50
2017-12-14T22:22:05.117Z,3.50
2017-12-14T22:24:32.330Z,3.50
2017-12-14T22:26:58.805Z,3.50
2017-12-14T22:29:25.257Z,3.50
2017-12-14T22:31:52.518Z,3.50
2017-12-14T22:34:19.800Z,3.40
2017-12-14T22:36:48.350Z,3.40
2017-12-14T22:39:14.846Z,3.40
2017-12-14T22:41:41.475Z,3.40
2017-12-14T22:44:07.947Z,3.30
2017-12-14T22:46:34.458Z,3.30
2017-12-14T22:49:00.996Z,3.20
2017-12-14T22:51:27.444Z,3.10
2017-12-14T22:53:53.860Z,3.10
2017-12-14T22:56:21.110Z,3.10
2017-12-14T22:58:48.290Z,3.20
2017-12-14T23:01:14.755Z,3.10
2017-12-14T23:03:41.242Z,3.10
2017-12-14T23:06:08.638Z,3.20
2017-12-14T23:08:35.072Z,3.20
2017-12-14T23:11:01.652Z,3.20
2017-12-14T23:13:28.112Z,3.20
2017-12-14T23:15:54.625Z,3.20
2017-12-14T23:18:21.111Z,3.20
2017-12-14T23:20:48.359Z,3.10
2017-12-14T23:23:15.555Z,3.10
2017-12-14T23:25:42.151Z,3.10
2017-12-14T23:28:09.394Z,3.10
2017-12-14T23:30:35.893Z,3.00
2017-12-14T23:33:02.330Z,3.10
2017-12-14T23:35:28.823Z,3.00
2017-12-14T23:37:56.118Z,3.10
2017-12-14T23:40:22.544Z,3.10
2017-12-14T23:42:49.014Z,3.10
2017-12-14T23:45:15.480Z,3.10
2017-12-14T23:47:41.918Z,3.20
2017-12-14T23:50:08.580Z,3.10
2017-12-14T23:52:36.063Z,3.00
2017-12-14T23:55:02.541Z,3.00
2017-12-14T23:57:29.018Z,3.00
2017-12-14T23:59:55.471Z,3.00
